createdAt,value
2018-03-27T00:02:15.273Z,76.80
2018-03-27T00:04:42.802Z,76.70
2018-03-27T00:07:10.347Z,76.40
2018-03-27T00:09:37.872Z,76.10
2018-03-27T00:12:05.447Z,75.60
2018-03-27T00:14:32.964Z,75.50
2018-03-27T00:17:00.522Z,75.80
2018-03-27T00:19:28.073Z,75.80
2018-03-27T00:21:55.601Z,75.60
2018-03-27T00:24:23.138Z,75.70
2018-03-27T00:27:02.395Z,75.70
2018-03-27T00:29:42.120Z,76.10
2018-03-27T00:32:21.800Z,75.90
2018-03-27T00:35:01.289Z,75.70
2018-03-27T00:37:42.212Z,76.10
2018-03-27T00:40:21.662Z,76.10
2018-03-27T00:42:52.281Z,76.10
2018-03-27T00:45:21.316Z,76.00
2018-03-27T00:47:48.852Z,76.00
2018-03-27T00:50:16.371Z,76.10
2018-03-27T00:52:44.655Z,76.60
2018-03-27T00:55:12.206Z,76.60
2018-03-27T00:57:39.725Z,76.50
2018-03-27T01:00:07.306Z,76.40
2018-03-27T01:02:34.832Z,76.60
2018-03-27T01:05:08.024Z,76.60
2018-03-27T01:07:35.539Z,76.30
2018-03-27T01:10:03.082Z,76.20
2018-03-27T01:12:31.426Z,76.90
2018-03-27T01:14:59.738Z,76.80
2018-03-27T01:17:27.292Z,76.00
2018-03-27T01:19:54.837Z,76.30
2018-03-27T01:22:22.649Z,76.50
2018-03-27T01:24:50.194Z,76.80
2018-03-27T01:27:17.755Z,77.10
2018-03-27T01:29:45.336Z,77.30
2018-03-27T01:32:19.381Z,77.60
2018-03-27T01:34:48.196Z,78.20
2018-03-27T01:37:15.719Z,78.20
2018-03-27T01:39:43.271Z,78.30
2018-03-27T01:42:10.789Z,78.40
2018-03-27T01:44:38.521Z,78.30
2018-03-27T01:47:06.812Z,79.10
2018-03-27T01:49:34.363Z,78.90
2018-03-27T01:52:01.889Z,78.90
2018-03-27T01:54:29.425Z,79.40
2018-03-27T01:56:56.952Z,79.60
2018-03-27T01:59:25.257Z,80.90
2018-03-27T02:01:52.802Z,80.10
2018-03-27T02:04:20.369Z,80.50
2018-03-27T02:06:48.132Z,80.90
2018-03-27T02:09:15.665Z,81.10
2018-03-27T02:11:48.932Z,81.10
2018-03-27T02:14:22.517Z,81.20
2018-03-27T02:16:55.762Z,81.20
2018-03-27T02:19:29.026Z,81.00
2018-03-27T02:21:56.064Z,81.30
2018-03-27T02:24:24.460Z,81.60
2018-03-27T02:26:51.972Z,81.80
2018-03-27T02:29:20.278Z,81.50
2018-03-27T02:31:48.747Z,81.50
2018-03-27T02:34:16.284Z,81.60
2018-03-27T02:36:43.820Z,81.80
2018-03-27T02:39:11.385Z,81.60
2018-03-27T02:41:38.963Z,81.90
2018-03-27T02:44:06.566Z,81.70
2018-03-27T02:46:34.097Z,81.30
2018-03-27T02:49:01.664Z,81.20
2018-03-27T02:51:29.203Z,81.50
2018-03-27T02:53:56.733Z,81.30
2018-03-27T02:56:24.272Z,81.30
2018-03-27T02:58:51.816Z,80.90
2018-03-27T03:01:19.453Z,80.90
2018-03-27T03:03:46.986Z,80.70
2018-03-27T03:06:14.645Z,80.90
2018-03-27T03:08:42.174Z,80.80
2018-03-27T03:11:09.706Z,81.00
2018-03-27T03:13:38.010Z,81.00
2018-03-27T03:16:05.552Z,80.90
2018-03-27T03:18:33.076Z,80.90
2018-03-27T03:21:00.868Z,81.00
2018-03-27T03:23:28.376Z,80.60
2018-03-27T03:25:55.920Z,80.30
2018-03-27T03:28:23.476Z,80.30
2018-03-27T03:30:51.008Z,80.10
2018-03-27T03:33:18.540Z,79.80
2018-03-27T03:35:46.076Z,79.60
2018-03-27T03:38:14.384Z,80.20
2018-03-27T03:40:41.920Z,79.50
2018-03-27T03:43:09.440Z,79.80
2018-03-27T03:45:37.029Z,79.60
2018-03-27T03:48:04.556Z,79.70
2018-03-27T03:50:32.104Z,80.10
2018-03-27T03:52:59.629Z,80.20
2018-03-27T03:55:27.172Z,80.90
2018-03-27T03:57:54.694Z,80.80
2018-03-27T04:00:23.024Z,81.40
2018-03-27T04:02:50.591Z,82.00
2018-03-27T04:05:19.048Z,81.80
2018-03-27T04:07:46.600Z,81.80
2018-03-27T04:10:16.820Z,82.30
2018-03-27T04:12:44.352Z,82.30
2018-03-27T04:15:12.677Z,82.50
2018-03-27T04:17:40.214Z,82.50
2018-03-27T04:20:07.756Z,82.60
2018-03-27T04:22:35.279Z,82.60
2018-03-27T04:25:02.821Z,82.60
2018-03-27T04:27:30.394Z,82.80
2018-03-27T04:29:57.942Z,82.70
2018-03-27T04:32:25.468Z,82.60
2018-03-27T04:34:52.994Z,82.50
2018-03-27T04:37:20.534Z,82.40
2018-03-27T04:39:48.091Z,82.20
2018-03-27T04:44:42.121Z,83.30
2018-03-27T04:47:09.728Z,83.30
2018-03-27T04:49:37.252Z,83.30
2018-03-27T04:52:04.784Z,83.50
2018-03-27T04:54:32.349Z,83.40
2018-03-27T04:56:59.960Z,83.50
2018-03-27T04:59:27.487Z,83.90
2018-03-27T05:01:55.793Z,84.50
2018-03-27T05:04:23.552Z,84.50
2018-03-27T05:06:52.209Z,85.40
2018-03-27T05:09:19.844Z,85.40
2018-03-27T05:11:47.516Z,85.40
2018-03-27T05:14:15.033Z,85.50
2018-03-27T05:16:42.576Z,86.50
2018-03-27T05:19:10.104Z,86.30
2018-03-27T05:21:38.415Z,86.40
2018-03-27T05:24:05.958Z,86.40
2018-03-27T05:26:33.540Z,86.80
2018-03-27T05:29:01.142Z,87.10
2018-03-27T05:31:28.702Z,86.70
2018-03-27T05:33:56.225Z,86.60
2018-03-27T05:36:23.780Z,86.20
2018-03-27T05:38:52.960Z,86.00
2018-03-27T05:41:20.532Z,86.00
2018-03-27T05:43:48.093Z,85.70
2018-03-27T05:46:16.425Z,85.30
2018-03-27T05:48:43.957Z,85.20
2018-03-27T05:51:11.506Z,85.30
2018-03-27T05:53:39.035Z,85.00
2018-03-27T05:56:06.581Z,85.30
2018-03-27T05:58:34.130Z,85.00
2018-03-27T06:01:01.669Z,84.10
2018-03-27T06:03:29.188Z,83.00
2018-03-27T06:05:56.731Z,82.80
2018-03-27T06:08:24.353Z,81.80
2018-03-27T06:10:52.872Z,82.20
2018-03-27T06:13:20.478Z,81.10
2018-03-27T06:15:48.760Z,80.10
2018-03-27T06:18:16.301Z,80.00
2018-03-27T06:20:43.824Z,79.60
2018-03-27T06:23:12.132Z,78.00
2018-03-27T06:25:39.659Z,77.90
2018-03-27T06:28:07.199Z,77.60
2018-03-27T06:30:34.748Z,77.90
2018-03-27T06:33:02.312Z,77.60
2018-03-27T06:35:29.832Z,77.60
2018-03-27T06:37:57.401Z,77.10
2018-03-27T06:40:24.935Z,77.10
2018-03-27T06:42:53.400Z,77.10
2018-03-27T06:45:20.980Z,76.90
2018-03-27T06:47:48.569Z,76.30
2018-03-27T06:50:16.848Z,75.00
2018-03-27T06:52:44.392Z,75.00
2018-03-27T06:55:11.908Z,74.90
2018-03-27T06:57:39.444Z,73.50
2018-03-27T07:00:07.728Z,74.80
2018-03-27T07:02:35.307Z,74.30
2018-03-27T07:05:02.835Z,73.20
2018-03-27T07:07:30.372Z,73.60
2018-03-27T07:09:57.935Z,73.70
2018-03-27T07:12:25.461Z,73.40
2018-03-27T07:14:54.467Z,73.80
2018-03-27T07:17:22.008Z,73.80
2018-03-27T07:19:49.544Z,73.80
2018-03-27T07:22:17.078Z,74.00
2018-03-27T07:24:44.605Z,74.40
2018-03-27T07:27:12.148Z,74.40
2018-03-27T07:29:39.673Z,74.20
2018-03-27T07:32:07.972Z,72.90
2018-03-27T07:34:35.503Z,72.90
2018-03-27T07:37:03.046Z,71.70
2018-03-27T07:39:30.613Z,71.30
2018-03-27T07:41:58.154Z,71.40
2018-03-27T07:44:25.809Z,72.10
2018-03-27T07:46:54.286Z,71.30
2018-03-27T07:49:21.828Z,71.00
2018-03-27T07:51:49.364Z,71.20
2018-03-27T07:54:16.880Z,70.80
2018-03-27T07:56:44.450Z,69.70
2018-03-27T07:59:11.993Z,69.60
2018-03-27T08:01:39.542Z,69.00
2018-03-27T08:04:07.081Z,69.10
2018-03-27T08:06:34.600Z,68.20
2018-03-27T08:09:02.175Z,68.00
2018-03-27T08:11:29.749Z,67.30
2018-03-27T08:13:57.286Z,67.00
2018-03-27T08:16:26.314Z,65.90
2018-03-27T08:18:53.856Z,65.70
2018-03-27T08:21:21.392Z,65.00
2018-03-27T08:23:49.075Z,65.10
2018-03-27T08:26:16.613Z,65.90
2018-03-27T08:28:44.150Z,65.30
2018-03-27T08:31:11.668Z,65.60
2018-03-27T08:33:39.225Z,66.90
2018-03-27T08:36:06.759Z,67.00
2018-03-27T08:38:34.441Z,67.60
2018-03-27T08:41:01.956Z,67.40
2018-03-27T08:43:29.520Z,66.80
2018-03-27T08:45:57.040Z,65.90
2018-03-27T08:48:24.580Z,64.80
2018-03-27T08:50:52.132Z,64.20
2018-03-27T08:53:19.664Z,64.00
2018-03-27T08:55:47.954Z,63.40
2018-03-27T08:58:15.692Z,63.30
2018-03-27T09:00:43.222Z,61.00
2018-03-27T09:03:10.813Z,62.00
2018-03-27T09:05:38.348Z,61.50
2018-03-27T09:08:05.881Z,61.40
2018-03-27T09:10:33.403Z,61.00
2018-03-27T09:13:00.961Z,61.30
2018-03-27T09:15:28.506Z,60.50
2018-03-27T09:17:57.069Z,61.10
2018-03-27T09:20:24.661Z,59.30
2018-03-27T09:22:52.196Z,59.70
2018-03-27T09:25:19.731Z,59.00
2018-03-27T09:27:47.274Z,58.50
2018-03-27T09:30:14.800Z,56.40
2018-03-27T09:32:42.337Z,56.00
2018-03-27T09:35:09.871Z,56.10
2018-03-27T09:37:37.397Z,55.90
2018-03-27T09:40:05.100Z,55.40
2018-03-27T09:42:32.620Z,55.70
2018-03-27T09:45:00.165Z,55.10
2018-03-27T09:47:27.692Z,53.20
2018-03-27T09:49:55.235Z,53.10
2018-03-27T09:52:22.765Z,50.70
2018-03-27T09:54:51.096Z,51.00
2018-03-27T09:57:18.626Z,51.00
2018-03-27T09:59:46.166Z,51.30
2018-03-27T10:02:13.698Z,50.80
2018-03-27T10:04:41.242Z,51.30
2018-03-27T10:07:08.764Z,50.60
2018-03-27T10:09:36.309Z,49.50
2018-03-27T10:12:04.598Z,47.00
2018-03-27T10:14:32.133Z,46.90
2018-03-27T10:16:59.662Z,46.00
2018-03-27T10:19:27.239Z,45.90
2018-03-27T10:21:54.782Z,45.70
2018-03-27T10:24:22.317Z,47.20
2018-03-27T10:26:49.871Z,47.50
2018-03-27T10:29:17.413Z,48.60
2018-03-27T10:31:44.933Z,49.60
2018-03-27T10:34:12.472Z,50.50
2018-03-27T10:36:39.995Z,50.50
2018-03-27T10:39:08.376Z,51.10
2018-03-27T10:41:35.909Z,51.10
2018-03-27T10:44:04.217Z,50.00
2018-03-27T10:46:31.740Z,49.90
2018-03-27T10:48:59.333Z,50.40
2018-03-27T10:51:26.857Z,49.30
2018-03-27T10:53:54.388Z,48.30
2018-03-27T10:56:21.928Z,48.70
2018-03-27T10:58:49.461Z,48.00
2018-03-27T11:01:17.005Z,46.50
2018-03-27T11:03:44.641Z,47.10
2018-03-27T11:06:12.165Z,48.10
2018-03-27T11:08:39.741Z,46.50
2018-03-27T11:11:07.265Z,46.00
2018-03-27T11:13:35.568Z,46.30
2018-03-27T11:16:03.143Z,46.30
2018-03-27T11:18:31.437Z,47.20
2018-03-27T11:21:00.359Z,47.20
2018-03-27T11:23:27.907Z,46.20
2018-03-27T11:25:55.776Z,45.60
2018-03-27T11:28:23.372Z,45.70
2018-03-27T11:30:50.917Z,46.10
2018-03-27T11:33:18.434Z,46.90
2018-03-27T11:35:45.972Z,45.20
2018-03-27T11:38:14.293Z,45.10
2018-03-27T11:40:41.824Z,45.10
2018-03-27T11:43:09.348Z,45.60
2018-03-27T11:45:36.946Z,45.10
2018-03-27T11:48:04.464Z,45.90
2018-03-27T11:50:31.993Z,45.00
2018-03-27T11:53:00.530Z,44.30
2018-03-27T11:55:28.853Z,41.70
2018-03-27T11:57:56.514Z,41.70
2018-03-27T12:00:24.342Z,42.90
2018-03-27T12:02:51.948Z,42.00
2018-03-27T12:05:19.596Z,41.80
2018-03-27T12:07:47.935Z,41.80
2018-03-27T12:10:16.240Z,41.20
2018-03-27T12:12:43.800Z,41.20
2018-03-27T12:15:11.353Z,41.20
2018-03-27T12:17:38.903Z,41.20
2018-03-27T12:20:06.463Z,41.00
2018-03-27T12:22:35.536Z,40.40
2018-03-27T12:25:03.095Z,40.40
2018-03-27T12:27:30.708Z,39.90
2018-03-27T12:29:58.256Z,39.70
2018-03-27T12:32:25.810Z,39.50
2018-03-27T12:34:53.410Z,39.10
2018-03-27T12:37:20.987Z,39.70
2018-03-27T12:39:48.529Z,39.60
2018-03-27T12:42:16.067Z,39.10
2018-03-27T12:44:43.628Z,38.20
2018-03-27T12:47:12.210Z,38.80
2018-03-27T12:49:39.761Z,39.30
2018-03-27T12:52:07.382Z,39.10
2018-03-27T12:54:34.965Z,38.40
2018-03-27T12:57:03.290Z,38.90
2018-03-27T12:59:30.813Z,38.50
2018-03-27T13:01:58.358Z,38.70
2018-03-27T13:04:25.889Z,37.80
2018-03-27T13:06:53.436Z,38.50
2018-03-27T13:09:20.984Z,38.90
2018-03-27T13:11:48.569Z,39.40
2018-03-27T13:14:16.108Z,39.80
2018-03-27T13:16:43.644Z,39.30
2018-03-27T13:19:11.182Z,38.70
2018-03-27T13:21:38.733Z,38.20
2018-03-27T13:24:06.789Z,37.80
2018-03-27T13:26:34.356Z,37.50
2018-03-27T13:29:03.569Z,38.70
2018-03-27T13:31:31.891Z,37.40
2018-03-27T13:33:59.419Z,37.50
2018-03-27T13:36:27.001Z,37.30
2018-03-27T13:38:54.579Z,38.20
2018-03-27T13:41:22.077Z,37.50
2018-03-27T13:43:49.629Z,36.40
2018-03-27T13:46:17.174Z,36.80
2018-03-27T13:48:45.454Z,35.60
2018-03-27T13:51:13.049Z,35.60
2018-03-27T13:53:40.580Z,35.70
2018-03-27T13:56:08.125Z,35.60
2018-03-27T13:58:35.656Z,35.40
2018-03-27T14:01:04.672Z,35.00
2018-03-27T14:03:32.213Z,35.00
2018-03-27T14:05:59.804Z,34.30
2018-03-27T14:08:28.095Z,33.50
2018-03-27T14:10:55.656Z,33.50
2018-03-27T14:13:23.196Z,33.60
2018-03-27T14:15:50.737Z,33.60
2018-03-27T14:18:18.391Z,33.50
2018-03-27T14:20:45.934Z,33.10
2018-03-27T14:23:13.454Z,34.40
2018-03-27T14:25:40.988Z,33.50
2018-03-27T14:28:08.528Z,33.30
2018-03-27T14:30:36.127Z,34.20
2018-03-27T14:33:04.622Z,33.70
2018-03-27T14:35:32.105Z,33.70
2018-03-27T14:37:59.644Z,33.80
2018-03-27T14:40:27.164Z,34.10
2018-03-27T14:42:55.481Z,34.30
2018-03-27T14:45:23.254Z,34.30
2018-03-27T14:47:51.573Z,34.00
2018-03-27T14:50:19.118Z,34.30
2018-03-27T14:52:46.775Z,33.40
2018-03-27T14:55:14.747Z,32.80
2018-03-27T14:57:42.413Z,32.70
2018-03-27T15:00:09.934Z,32.30
2018-03-27T15:02:37.482Z,32.60
2018-03-27T15:05:06.105Z,32.40
2018-03-27T15:07:33.648Z,32.40
2018-03-27T15:10:01.235Z,33.10
2018-03-27T15:12:28.810Z,33.60
2018-03-27T15:14:56.407Z,34.30
2018-03-27T15:17:23.948Z,34.00
2018-03-27T15:19:51.472Z,33.80
2018-03-27T15:22:19.012Z,34.00
2018-03-27T15:24:46.562Z,34.00
2018-03-27T15:27:14.137Z,34.80
2018-03-27T15:29:41.783Z,34.70
2018-03-27T15:32:09.313Z,35.40
2018-03-27T15:34:36.897Z,36.00
2018-03-27T15:37:06.871Z,36.20
2018-03-27T15:39:34.412Z,36.20
2018-03-27T15:42:01.961Z,36.30
2018-03-27T15:44:29.504Z,36.30
2018-03-27T15:46:57.074Z,37.00
2018-03-27T15:49:24.616Z,37.20
2018-03-27T15:51:52.157Z,37.50
2018-03-27T15:54:19.786Z,37.90
2018-03-27T15:56:47.321Z,37.90
2018-03-27T15:59:14.976Z,39.20
2018-03-27T16:01:42.516Z,39.70
2018-03-27T16:04:10.032Z,40.20
2018-03-27T16:06:37.586Z,40.50
2018-03-27T16:09:05.227Z,39.30
2018-03-27T16:11:32.812Z,38.60
2018-03-27T16:14:00.337Z,37.50
2018-03-27T16:16:27.897Z,35.70
2018-03-27T16:18:55.413Z,35.30
2018-03-27T16:21:23.234Z,34.30
2018-03-27T16:23:51.872Z,34.30
2018-03-27T16:26:19.502Z,34.20
2018-03-27T16:28:47.035Z,34.60
2018-03-27T16:31:14.582Z,35.00
2018-03-27T16:33:42.170Z,35.10
2018-03-27T16:36:09.704Z,35.40
2018-03-27T16:38:37.261Z,36.00
2018-03-27T16:41:05.596Z,35.10
2018-03-27T16:43:33.279Z,35.00
2018-03-27T16:46:00.794Z,35.30
2018-03-27T16:48:28.348Z,36.30
2018-03-27T16:50:55.885Z,36.40
2018-03-27T16:53:23.426Z,36.70
2018-03-27T16:55:50.969Z,38.60
2018-03-27T16:58:18.504Z,39.20
2018-03-27T17:00:49.468Z,41.80
2018-03-27T17:03:17.792Z,43.80
2018-03-27T17:05:45.430Z,43.80
2018-03-27T17:08:14.000Z,44.60
2018-03-27T17:10:41.525Z,45.50
2018-03-27T17:13:09.063Z,46.10
2018-03-27T17:15:36.606Z,46.80
2018-03-27T17:18:04.160Z,47.30
2018-03-27T17:20:31.690Z,47.60
2018-03-27T17:22:59.270Z,48.30
2018-03-27T17:25:26.793Z,48.40
2018-03-27T17:27:54.351Z,49.60
2018-03-27T17:30:21.862Z,49.70
2018-03-27T17:32:50.276Z,51.20
2018-03-27T17:35:17.784Z,51.20
2018-03-27T17:37:45.451Z,51.80
2018-03-27T17:40:12.984Z,52.40
2018-03-27T17:42:40.529Z,53.30
2018-03-27T17:45:08.710Z,53.50
2018-03-27T17:47:36.307Z,54.30
2018-03-27T17:50:03.796Z,54.20
2018-03-27T17:52:32.201Z,55.10
2018-03-27T17:54:59.811Z,55.10
2018-03-27T17:57:27.417Z,55.30
2018-03-27T17:59:55.628Z,55.50
2018-03-27T18:02:23.297Z,55.50
2018-03-27T18:04:51.718Z,55.50
2018-03-27T18:07:19.275Z,55.50
2018-03-27T18:09:47.345Z,55.80
2018-03-27T18:12:14.963Z,56.10
2018-03-27T18:14:42.612Z,55.70
2018-03-27T18:17:10.164Z,56.10
2018-03-27T18:19:37.701Z,56.20
2018-03-27T18:22:05.250Z,56.60
2018-03-27T18:24:32.787Z,56.80
2018-03-27T18:27:00.320Z,57.00
2018-03-27T18:29:27.912Z,57.20
2018-03-27T18:31:55.437Z,57.40
2018-03-27T18:34:23.885Z,57.70
2018-03-27T18:36:51.433Z,57.60
2018-03-27T18:39:18.959Z,57.90
2018-03-27T18:41:46.520Z,57.80
2018-03-27T18:44:14.054Z,58.40
2018-03-27T18:46:41.593Z,58.50
2018-03-27T18:49:09.131Z,58.40
2018-03-27T18:51:36.660Z,58.70
2018-03-27T18:54:04.190Z,59.00
2018-03-27T18:56:32.489Z,59.20
2018-03-27T18:59:00.022Z,59.20
2018-03-27T19:01:27.536Z,58.90
2018-03-27T19:03:55.951Z,59.50
2018-03-27T19:06:23.545Z,59.50
2018-03-27T19:08:51.850Z,59.40
2018-03-27T19:11:19.372Z,59.30
2018-03-27T19:13:46.904Z,59.20
2018-03-27T19:16:15.208Z,59.50
2018-03-27T19:18:42.746Z,59.50
2018-03-27T19:21:11.205Z,59.50
2018-03-27T19:23:38.761Z,60.50
2018-03-27T19:26:06.281Z,60.00
2018-03-27T19:28:34.048Z,59.90
2018-03-27T19:31:01.570Z,60.00
2018-03-27T19:33:29.144Z,59.50
2018-03-27T19:35:56.687Z,59.60
2018-03-27T19:38:24.232Z,60.00
2018-03-27T19:40:53.120Z,60.40
2018-03-27T19:43:20.653Z,60.50
2018-03-27T19:45:48.216Z,60.70
2018-03-27T19:48:15.850Z,61.00
2018-03-27T19:50:43.743Z,61.30
2018-03-27T19:53:12.586Z,62.10
2018-03-27T19:55:40.151Z,62.10
2018-03-27T19:58:07.678Z,61.80
2018-03-27T20:00:38.412Z,62.20
2018-03-27T20:03:06.729Z,62.50
2018-03-27T20:05:34.387Z,62.50
2018-03-27T20:08:01.925Z,62.70
2018-03-27T20:10:31.429Z,62.80
2018-03-27T20:12:58.988Z,63.20
2018-03-27T20:15:26.624Z,63.20
2018-03-27T20:17:54.152Z,63.40
2018-03-27T20:20:21.688Z,63.60
2018-03-27T20:22:49.225Z,63.60
2018-03-27T20:25:16.784Z,63.70
2018-03-27T20:27:44.311Z,64.00
2018-03-27T20:30:12.556Z,64.10
2018-03-27T20:32:40.845Z,64.80
2018-03-27T20:35:08.384Z,64.60
2018-03-27T20:37:35.983Z,64.50
2018-03-27T20:40:03.525Z,64.30
2018-03-27T20:42:31.137Z,64.60
2018-03-27T20:44:58.678Z,64.50
2018-03-27T20:47:26.201Z,64.60
2018-03-27T20:49:53.743Z,64.70
2018-03-27T20:52:21.313Z,64.60
2018-03-27T20:54:48.864Z,64.60
2018-03-27T20:57:16.392Z,64.70
2018-03-27T20:59:43.924Z,65.00
2018-03-27T21:02:11.443Z,64.70
2018-03-27T21:04:39.751Z,64.40
2018-03-27T21:07:07.302Z,64.40
2018-03-27T21:09:34.848Z,64.70
2018-03-27T21:12:03.145Z,64.90
2018-03-27T21:14:30.704Z,64.90
2018-03-27T21:16:58.262Z,65.20
2018-03-27T21:19:25.837Z,65.40
2018-03-27T21:21:53.444Z,65.40
2018-03-27T21:24:21.737Z,65.90
2018-03-27T21:26:49.292Z,65.90
2018-03-27T21:29:16.858Z,65.90
2018-03-27T21:31:46.896Z,66.30
2018-03-27T21:34:15.200Z,65.70
2018-03-27T21:36:42.740Z,65.70
2018-03-27T21:39:10.282Z,65.90
2018-03-27T21:41:37.813Z,66.10
2018-03-27T21:44:05.333Z,65.70
2018-03-27T21:46:33.633Z,66.40
2018-03-27T21:49:01.157Z,66.40
2018-03-27T21:51:28.712Z,66.40
2018-03-27T21:53:56.248Z,66.40
2018-03-27T21:56:23.794Z,66.70
2018-03-27T21:58:51.321Z,67.30
2018-03-27T22:01:18.861Z,66.60
2018-03-27T22:03:46.402Z,66.90
2018-03-27T22:06:14.430Z,66.90
2018-03-27T22:08:42.008Z,67.20
2018-03-27T22:11:10.322Z,66.70
2018-03-27T22:13:37.922Z,66.70
2018-03-27T22:16:05.461Z,67.20
2018-03-27T22:18:33.044Z,66.50
2018-03-27T22:21:00.608Z,66.90
2018-03-27T22:23:28.128Z,66.90
2018-03-27T22:25:55.661Z,67.00
2018-03-27T22:28:23.194Z,67.00
2018-03-27T22:30:50.730Z,67.80
2018-03-27T22:33:18.268Z,67.80
2018-03-27T22:35:45.855Z,67.70
2018-03-27T22:38:13.376Z,67.30
2018-03-27T22:40:40.913Z,67.30
2018-03-27T22:43:08.429Z,66.80
2018-03-27T22:45:36.729Z,67.90
2018-03-27T22:48:04.244Z,67.10
2018-03-27T22:50:32.543Z,66.60
2018-03-27T22:53:00.120Z,66.60
2018-03-27T22:55:27.698Z,66.50
2018-03-27T22:57:55.987Z,66.40
2018-03-27T23:00:23.550Z,66.40
2018-03-27T23:02:51.089Z,66.50
2018-03-27T23:05:18.621Z,66.40
2018-03-27T23:07:46.157Z,66.40
2018-03-27T23:10:13.677Z,66.50
2018-03-27T23:12:42.092Z,66.90
2018-03-27T23:15:09.613Z,66.90
2018-03-27T23:17:37.153Z,66.90
2018-03-27T23:20:04.669Z,66.90
2018-03-27T23:22:32.967Z,67.40
2018-03-27T23:25:00.508Z,67.40
2018-03-27T23:27:28.057Z,67.90
2018-03-27T23:29:55.577Z,67.80
2018-03-27T23:32:23.883Z,68.10
2018-03-27T23:34:51.425Z,68.00
2018-03-27T23:37:18.961Z,68.30
2018-03-27T23:39:46.486Z,68.10
2018-03-27T23:42:14.030Z,68.20
2018-03-27T23:44:41.548Z,68.40
2018-03-27T23:47:10.169Z,68.60
2018-03-27T23:49:37.713Z,68.50
2018-03-27T23:52:05.375Z,68.70
2018-03-27T23:54:32.905Z,68.50
2018-03-27T23:57:00.548Z,68.90
2018-03-27T23:59:28.068Z,69.10
